createdAt,value
2023-03-01T00:02:29.487Z,12.57
2023-03-01T00:04:56.827Z,13.07
2023-03-01T00:07:24.147Z,11.57
2023-03-01T00:09:51.526Z,11.80
2023-03-01T00:12:18.911Z,12.75
2023-03-01T00:14:51.912Z,12.15
2023-03-01T00:17:19.178Z,11.35
2023-03-01T00:19:48.508Z,12.20
2023-03-01T00:22:15.883Z,11.80
2023-03-01T00:24:45.461Z,10.25
2023-03-01T00:27:12.724Z,11.10
2023-03-01T00:29:40.096Z,11.40
2023-03-01T00:32:07.766Z,10.68
2023-03-01T00:34:35.065Z,11.48
2023-03-01T00:37:06.300Z,11.65
2023-03-01T00:39:34.315Z,11.25
2023-03-01T00:42:01.682Z,11.25
2023-03-01T00:44:29.554Z,12.43
2023-03-01T00:46:56.923Z,12.00
2023-03-01T00:49:25.685Z,12.55
2023-03-01T00:51:53.100Z,11.95
2023-03-01T00:54:20.452Z,11.60
2023-03-01T00:56:47.778Z,10.88
2023-03-01T00:59:15.131Z,12.45
2023-03-01T01:01:45.246Z,12.13
2023-03-01T01:04:15.991Z,10.98
2023-03-01T01:09:18.109Z,12.30
2023-03-01T01:11:53.038Z,13.05
2023-03-01T01:14:20.898Z,11.65
2023-03-01T01:16:48.120Z,12.80
2023-03-01T01:19:15.653Z,12.80
2023-03-01T01:21:46.047Z,11.93
2023-03-01T01:24:13.760Z,13.07
2023-03-01T01:26:41.050Z,12.48
2023-03-01T01:29:11.437Z,12.23
2023-03-01T01:31:39.288Z,12.43
2023-03-01T01:34:14.381Z,12.23
2023-03-01T01:36:44.324Z,12.65
2023-03-01T01:39:14.643Z,11.57
2023-03-01T01:41:43.378Z,11.93
2023-03-01T01:44:29.425Z,10.32
2023-03-01T01:47:02.825Z,12.10
2023-03-01T01:49:33.084Z,12.18
2023-03-01T01:52:07.235Z,11.52
2023-03-01T01:54:47.274Z,11.60
2023-03-01T01:57:17.471Z,10.25
2023-03-01T01:59:46.278Z,11.65
2023-03-01T02:02:13.761Z,13.10
2023-03-01T02:04:41.272Z,13.73
2023-03-01T02:07:15.245Z,12.82
2023-03-01T02:09:44.303Z,13.48
2023-03-01T02:12:11.897Z,13.00
2023-03-01T02:14:39.206Z,13.15
2023-03-01T02:17:06.563Z,13.00
2023-03-01T02:19:52.561Z,12.52
2023-03-01T02:22:27.465Z,12.10
2023-03-01T02:25:20.452Z,12.18
2023-03-01T02:28:06.715Z,12.13
2023-03-01T02:30:37.625Z,12.23
2023-03-01T02:33:06.000Z,12.65
2023-03-01T02:35:35.696Z,12.70
2023-03-01T02:38:03.420Z,12.80
2023-03-01T02:40:32.226Z,13.27
2023-03-01T02:43:00.347Z,12.00
2023-03-01T02:45:28.329Z,13.10
2023-03-01T02:47:56.706Z,13.02
2023-03-01T02:50:27.078Z,13.07
2023-03-01T02:53:03.513Z,13.27
2023-03-01T02:55:30.950Z,11.93
2023-03-01T02:57:58.791Z,12.07
2023-03-01T03:00:36.057Z,13.35
2023-03-01T03:03:03.467Z,12.80
2023-03-01T03:05:32.341Z,13.00
2023-03-01T03:08:00.715Z,12.43
2023-03-01T03:10:29.384Z,12.10
2023-03-01T03:13:00.168Z,12.45
2023-03-01T03:17:58.775Z,11.85
2023-03-01T03:20:27.410Z,13.18
2023-03-01T03:22:55.974Z,12.00
2023-03-01T03:25:23.895Z,13.38
2023-03-01T03:27:57.521Z,12.25
2023-03-01T03:30:26.240Z,12.40
2023-03-01T03:32:53.606Z,13.07
2023-03-01T03:35:22.444Z,12.38
2023-03-01T03:38:07.518Z,13.10
2023-03-01T03:40:39.335Z,13.13
2023-03-01T03:43:07.528Z,12.73
2023-03-01T03:45:36.175Z,13.75
2023-03-01T03:48:04.270Z,13.43
2023-03-01T03:50:31.756Z,13.90
2023-03-01T03:52:59.150Z,12.32
2023-03-01T03:55:33.084Z,13.82
2023-03-01T03:58:03.125Z,13.30
2023-03-01T04:00:30.653Z,10.98
2023-03-01T04:02:57.716Z,13.10
2023-03-01T04:05:25.520Z,14.00
2023-03-01T04:08:07.913Z,12.10
2023-03-01T04:10:55.231Z,12.48
2023-03-01T04:13:23.549Z,12.43
2023-03-01T04:15:51.673Z,12.73
2023-03-01T04:18:20.117Z,12.27
2023-03-01T04:20:47.593Z,12.43
2023-03-01T04:23:16.929Z,13.52
2023-03-01T04:25:47.014Z,12.13
2023-03-01T04:28:14.049Z,11.82
2023-03-01T04:30:42.318Z,14.35
2023-03-01T04:33:10.431Z,13.18
2023-03-01T04:35:38.675Z,13.32
2023-03-01T04:38:08.550Z,15.98
2023-03-01T04:40:36.059Z,14.03
2023-03-01T04:43:06.307Z,14.27
2023-03-01T04:45:35.608Z,13.88
2023-03-01T04:48:03.451Z,13.30
2023-03-01T04:50:30.963Z,12.82
2023-03-01T04:53:01.129Z,14.80
2023-03-01T04:55:28.828Z,13.68
2023-03-01T04:57:58.602Z,12.15
2023-03-01T05:00:26.119Z,13.37
2023-03-01T05:02:55.116Z,14.15
2023-03-01T05:05:26.441Z,14.52
2023-03-01T05:07:56.892Z,13.05
2023-03-01T05:10:24.849Z,14.60
2023-03-01T05:12:53.279Z,14.55
2023-03-01T05:15:22.763Z,12.07
2023-03-01T05:17:51.012Z,12.95
2023-03-01T05:20:23.907Z,12.80
2023-03-01T05:22:57.190Z,13.95
2023-03-01T05:25:25.381Z,13.35
2023-03-01T05:27:55.255Z,14.43
2023-03-01T05:30:25.778Z,14.90
2023-03-01T05:32:59.063Z,13.40
2023-03-01T05:35:26.495Z,14.55
2023-03-01T05:37:56.846Z,15.13
2023-03-01T05:40:34.506Z,14.43
2023-03-01T05:43:01.827Z,15.32
2023-03-01T05:45:33.272Z,15.02
2023-03-01T05:48:01.020Z,13.30
2023-03-01T05:50:29.471Z,14.77
2023-03-01T05:53:07.252Z,15.90
2023-03-01T05:55:34.498Z,14.70
2023-03-01T05:58:05.837Z,15.53
2023-03-01T06:00:34.917Z,13.73
2023-03-01T06:03:02.259Z,14.87
2023-03-01T06:05:30.707Z,15.63
2023-03-01T06:08:01.439Z,14.10
2023-03-01T06:13:00.285Z,13.27
2023-03-01T06:15:30.623Z,15.40
2023-03-01T06:18:00.589Z,14.38
2023-03-01T06:20:28.696Z,12.68
2023-03-01T06:22:58.844Z,13.57
2023-03-01T06:25:34.160Z,14.52
2023-03-01T06:28:03.465Z,16.97
2023-03-01T06:30:30.672Z,15.40
2023-03-01T06:33:01.730Z,15.23
2023-03-01T06:35:32.524Z,15.45
2023-03-01T06:40:36.389Z,14.60
2023-03-01T06:43:05.793Z,15.90
2023-03-01T06:45:36.726Z,15.20
2023-03-01T06:48:09.664Z,14.48
2023-03-01T06:50:37.291Z,15.35
2023-03-01T06:53:04.666Z,16.73
2023-03-01T06:55:32.407Z,15.13
2023-03-01T06:58:03.387Z,14.02
2023-03-01T07:00:30.807Z,14.95
2023-03-01T07:03:00.353Z,15.60
2023-03-01T07:05:27.719Z,17.10
2023-03-01T07:07:55.987Z,16.23
2023-03-01T07:10:23.003Z,18.02
2023-03-01T07:12:50.032Z,17.30
2023-03-01T07:15:17.101Z,16.73
2023-03-01T07:17:45.524Z,17.15
2023-03-01T07:20:12.936Z,16.13
2023-03-01T07:22:42.289Z,17.20
2023-03-01T07:25:09.891Z,16.13
2023-03-01T07:27:36.960Z,15.45
2023-03-01T07:30:04.528Z,16.60
2023-03-01T07:32:31.651Z,15.88
2023-03-01T07:34:58.821Z,14.45
2023-03-01T07:37:25.795Z,15.52
2023-03-01T07:40:05.897Z,14.65
2023-03-01T07:42:32.937Z,14.93
2023-03-01T07:45:00.005Z,15.30
2023-03-01T07:47:27.027Z,16.25
2023-03-01T07:49:57.155Z,15.23
2023-03-01T07:52:24.425Z,14.52
2023-03-01T07:54:51.711Z,15.10
2023-03-01T07:57:21.972Z,16.40
2023-03-01T07:59:49.422Z,13.05
2023-03-01T08:02:16.449Z,15.93
2023-03-01T08:04:44.006Z,16.30
2023-03-01T08:07:11.037Z,13.68
2023-03-01T08:09:38.678Z,15.40
2023-03-01T08:12:06.131Z,14.32
2023-03-01T08:14:33.619Z,15.50
2023-03-01T08:17:00.739Z,16.25
2023-03-01T08:19:29.014Z,15.15
2023-03-01T08:21:59.176Z,15.32
2023-03-01T08:24:26.329Z,16.95
2023-03-01T08:26:53.358Z,16.52
2023-03-01T08:29:20.472Z,15.65
2023-03-01T08:31:47.531Z,16.52
2023-03-01T08:34:15.804Z,13.45
2023-03-01T08:36:55.150Z,14.00
2023-03-01T08:39:22.294Z,14.77
2023-03-01T08:41:49.546Z,15.73
2023-03-01T08:44:17.722Z,14.77
2023-03-01T08:46:46.384Z,13.82
2023-03-01T08:49:17.330Z,14.60
2023-03-01T08:51:54.073Z,16.10
2023-03-01T08:54:22.240Z,15.30
2023-03-01T08:56:53.127Z,14.73
2023-03-01T09:02:01.601Z,14.30
2023-03-01T09:07:03.517Z,13.35
2023-03-01T09:09:30.578Z,15.18
2023-03-01T09:11:57.841Z,14.07
2023-03-01T09:14:25.054Z,13.27
2023-03-01T09:16:52.173Z,14.90
2023-03-01T09:19:19.225Z,14.27
2023-03-01T09:21:50.083Z,13.60
2023-03-01T09:24:17.095Z,12.40
2023-03-01T09:26:47.568Z,12.77
2023-03-01T09:29:16.114Z,14.30
2023-03-01T09:31:43.898Z,13.00
2023-03-01T09:34:11.460Z,13.52
2023-03-01T09:36:45.097Z,12.70
2023-03-01T09:39:12.136Z,12.25
2023-03-01T09:41:45.957Z,11.80
2023-03-01T09:44:15.806Z,13.82
2023-03-01T09:46:44.016Z,12.20
2023-03-01T09:49:14.024Z,13.35
2023-03-01T09:51:44.079Z,11.63
2023-03-01T09:54:11.632Z,12.15
2023-03-01T09:56:41.397Z,11.90
2023-03-01T09:59:14.263Z,10.80
2023-03-01T10:01:54.932Z,11.70
2023-03-01T10:06:58.171Z,13.93
2023-03-01T10:15:03.813Z,11.82
2023-03-01T10:17:33.995Z,12.52
2023-03-01T10:20:15.037Z,11.32
2023-03-01T10:22:43.738Z,12.43
2023-03-01T10:25:14.534Z,12.30
2023-03-01T10:27:47.887Z,11.77
2023-03-01T10:36:01.240Z,11.55
2023-03-01T10:38:31.829Z,12.07
2023-03-01T10:43:27.189Z,10.68
2023-03-01T10:45:57.370Z,11.52
2023-03-01T10:48:31.078Z,10.70
2023-03-01T10:51:00.948Z,11.85
2023-03-01T10:53:30.076Z,11.95
2023-03-01T10:56:06.352Z,11.95
2023-03-01T10:58:34.488Z,11.02
2023-03-01T11:01:02.221Z,11.65
2023-03-01T11:03:31.816Z,11.45
2023-03-01T11:14:26.771Z,11.60
2023-03-01T11:17:02.824Z,11.70
2023-03-01T11:19:30.071Z,11.52
2023-03-01T11:22:03.278Z,10.73
2023-03-01T11:24:34.217Z,10.45
2023-03-01T11:29:49.424Z,10.93
2023-03-01T11:32:17.159Z,10.00
2023-03-01T11:34:47.118Z,12.10
2023-03-01T11:37:18.782Z,9.73
2023-03-01T11:39:51.869Z,10.05
2023-03-01T11:53:46.967Z,9.20
2023-03-01T11:56:24.179Z,9.48
2023-03-01T11:59:08.910Z,9.98
2023-03-01T12:01:42.185Z,8.85
2023-03-01T12:04:12.816Z,8.05
2023-03-01T12:06:45.932Z,8.45
2023-03-01T12:17:42.530Z,8.82
2023-03-01T12:20:16.037Z,8.35
2023-03-01T12:22:52.423Z,10.13
2023-03-01T12:25:25.407Z,8.40
2023-03-01T12:28:01.253Z,9.85
2023-03-01T12:30:31.055Z,11.15
2023-03-01T12:50:33.924Z,7.40
2023-03-01T12:53:00.988Z,6.78
2023-03-01T12:55:33.146Z,7.50
2023-03-01T12:58:02.981Z,6.40
2023-03-01T13:00:48.828Z,6.13
2023-03-01T13:03:36.210Z,6.78
2023-03-01T13:06:09.263Z,6.00
2023-03-01T13:09:03.557Z,6.93
2023-03-01T13:11:30.863Z,6.68
2023-03-01T13:14:16.595Z,6.90
2023-03-01T13:16:45.945Z,6.15
2023-03-01T13:19:19.720Z,5.88
2023-03-01T13:21:47.247Z,5.85
2023-03-01T13:24:26.494Z,7.15
2023-03-01T13:27:11.717Z,6.72
2023-03-01T13:29:47.224Z,7.28
2023-03-01T13:32:23.492Z,6.55
2023-03-01T13:34:56.274Z,6.88
2023-03-01T13:37:26.732Z,7.07
2023-03-01T13:42:32.661Z,6.05
2023-03-01T13:45:00.110Z,6.50
2023-03-01T13:47:28.680Z,5.95
2023-03-01T13:50:01.342Z,6.35
2023-03-01T13:52:50.820Z,6.00
2023-03-01T13:55:19.942Z,5.82
2023-03-01T13:57:54.688Z,6.07
2023-03-01T14:00:24.835Z,6.50
2023-03-01T14:05:22.752Z,5.63
2023-03-01T14:07:52.711Z,6.38
2023-03-01T14:10:19.794Z,5.88
2023-03-01T14:12:51.344Z,6.50
2023-03-01T14:15:18.417Z,7.32
2023-03-01T14:17:55.995Z,6.80
2023-03-01T14:23:14.545Z,6.90
2023-03-01T14:25:48.396Z,7.30
2023-03-01T14:30:49.297Z,6.72
2023-03-01T14:33:26.942Z,6.53
2023-03-01T14:36:14.213Z,6.57
2023-03-01T14:38:41.174Z,6.43
2023-03-01T14:41:11.741Z,6.22
2023-03-01T14:43:44.323Z,6.43
2023-03-01T14:46:30.880Z,7.32
2023-03-01T14:49:00.351Z,7.10
2023-03-01T14:57:31.059Z,6.03
2023-03-01T15:00:05.182Z,5.20
2023-03-01T15:02:35.782Z,5.78
2023-03-01T15:05:08.146Z,5.10
2023-03-01T15:10:27.412Z,4.82
2023-03-01T15:12:54.529Z,5.57
2023-03-01T15:15:30.969Z,5.13
2023-03-01T15:17:59.746Z,5.90
2023-03-01T15:22:58.145Z,5.35
2023-03-01T15:25:29.005Z,4.32
2023-03-01T15:27:56.786Z,5.28
2023-03-01T15:30:31.746Z,4.15
2023-03-01T15:33:20.461Z,4.60
2023-03-01T15:40:53.811Z,4.22
2023-03-01T15:43:43.689Z,4.22
2023-03-01T15:46:31.015Z,4.97
2023-03-01T15:48:59.577Z,4.35
2023-03-01T15:51:37.149Z,4.07
2023-03-01T15:54:14.273Z,4.22
2023-03-01T15:56:41.257Z,4.70
2023-03-01T16:01:54.262Z,4.30
2023-03-01T16:04:21.787Z,4.68
2023-03-01T16:06:54.936Z,3.97
2023-03-01T16:09:25.980Z,4.10
2023-03-01T16:11:52.955Z,3.85
2023-03-01T16:14:20.706Z,5.20
2023-03-01T16:16:49.002Z,5.18
2023-03-01T16:19:16.680Z,4.00
2023-03-01T16:21:47.459Z,4.30
2023-03-01T16:24:14.963Z,4.30
2023-03-01T16:26:43.066Z,3.92
2023-03-01T16:34:50.229Z,4.55
2023-03-01T16:37:17.729Z,4.25
2023-03-01T16:39:44.820Z,4.43
2023-03-01T16:42:11.885Z,4.47
2023-03-01T16:44:38.922Z,5.65
2023-03-01T16:49:39.320Z,6.75
2023-03-01T16:52:08.238Z,6.57
2023-03-01T16:54:38.081Z,7.20
2023-03-01T16:57:05.578Z,6.50
2023-03-01T16:59:32.573Z,7.45
2023-03-01T17:02:09.906Z,5.93
2023-03-01T17:04:36.936Z,6.78
2023-03-01T17:07:04.074Z,6.57
2023-03-01T17:09:31.591Z,6.85
2023-03-01T17:11:58.816Z,6.90
2023-03-01T17:14:25.924Z,7.95
2023-03-01T17:19:52.412Z,6.05
2023-03-01T17:22:22.229Z,7.05
2023-03-01T17:24:50.128Z,7.43
2023-03-01T17:27:18.294Z,6.70
2023-03-01T17:29:59.563Z,6.57
2023-03-01T17:32:30.206Z,5.95
2023-03-01T17:37:30.661Z,5.13
2023-03-01T17:39:57.714Z,6.32
2023-03-01T17:42:24.769Z,5.47
2023-03-01T17:44:51.817Z,5.03
2023-03-01T17:47:19.102Z,5.22
2023-03-01T17:49:46.208Z,5.25
2023-03-01T17:52:13.241Z,4.88
2023-03-01T17:54:40.366Z,4.95
2023-03-01T17:59:38.353Z,4.68
2023-03-01T18:02:05.476Z,5.30
2023-03-01T18:04:32.622Z,6.15
2023-03-01T18:07:00.040Z,6.35
2023-03-01T18:09:30.489Z,5.53
2023-03-01T18:11:57.591Z,6.80
2023-03-01T18:14:25.863Z,5.82
2023-03-01T18:16:54.251Z,5.55
2023-03-01T18:19:21.247Z,5.95
2023-03-01T18:21:48.303Z,6.53
2023-03-01T18:24:15.373Z,6.10
2023-03-01T18:26:42.376Z,6.50
2023-03-01T18:29:10.416Z,5.95
2023-03-01T18:31:47.167Z,5.68
2023-03-01T18:34:14.268Z,6.13
2023-03-01T18:36:41.642Z,6.47
2023-03-01T18:39:11.454Z,5.30
2023-03-01T18:41:38.512Z,6.57
2023-03-01T18:44:06.642Z,6.60
2023-03-01T18:52:12.484Z,6.22
2023-03-01T18:54:39.537Z,6.03
2023-03-01T18:57:06.626Z,5.53
2023-03-01T18:59:33.727Z,5.32
2023-03-01T19:02:00.817Z,6.50
2023-03-01T19:09:35.919Z,5.95
2023-03-01T19:12:03.566Z,6.15
2023-03-01T19:14:30.542Z,7.07
2023-03-01T19:16:57.598Z,6.78
2023-03-01T19:22:06.424Z,7.20
2023-03-01T19:24:33.506Z,6.05
2023-03-01T19:27:00.656Z,6.30
2023-03-01T19:29:27.674Z,6.05
2023-03-01T19:31:54.832Z,6.03
2023-03-01T19:40:07.520Z,8.00
2023-03-01T19:42:34.555Z,5.90
2023-03-01T19:45:01.631Z,6.68
2023-03-01T19:50:08.701Z,6.72
2023-03-01T19:52:35.713Z,6.72
2023-03-01T19:55:09.516Z,7.05
2023-03-01T19:57:37.082Z,6.07
2023-03-01T20:00:04.503Z,7.07
2023-03-01T20:02:31.669Z,6.57
2023-03-01T20:04:58.675Z,6.47
2023-03-01T20:07:29.452Z,7.75
2023-03-01T20:09:56.465Z,6.75
2023-03-01T20:12:24.004Z,7.72
2023-03-01T20:14:55.582Z,7.97
2023-03-01T20:17:29.429Z,7.28
2023-03-01T20:19:56.546Z,6.85
2023-03-01T20:22:25.457Z,7.30
2023-03-01T20:24:52.481Z,7.25
2023-03-01T20:27:19.648Z,6.70
2023-03-01T20:29:46.630Z,8.50
2023-03-01T20:32:13.949Z,7.78
2023-03-01T20:34:40.978Z,8.55
2023-03-01T20:39:55.424Z,8.75
2023-03-01T20:42:22.453Z,9.57
2023-03-01T20:44:49.568Z,9.98
2023-03-01T20:47:16.716Z,8.73
2023-03-01T20:49:43.718Z,9.35
2023-03-01T20:57:47.107Z,8.90
2023-03-01T21:00:14.714Z,9.00
2023-03-01T21:02:41.920Z,9.88
2023-03-01T21:05:09.120Z,8.70
2023-03-01T21:07:36.219Z,8.75
2023-03-01T21:12:39.356Z,10.80
2023-03-01T21:15:06.694Z,10.48
2023-03-01T21:20:22.351Z,10.65
2023-03-01T21:22:49.354Z,9.93
2023-03-01T21:25:16.401Z,10.27
2023-03-01T21:27:43.409Z,9.82
2023-03-01T21:30:17.066Z,10.38
2023-03-01T21:32:44.147Z,9.48
2023-03-01T21:35:11.576Z,10.50
2023-03-01T21:37:39.144Z,10.88
2023-03-01T21:40:09.804Z,10.85
2023-03-01T21:42:38.594Z,10.60
2023-03-01T21:45:05.887Z,10.43
2023-03-01T21:47:34.158Z,11.40
2023-03-01T21:50:01.165Z,10.60
2023-03-01T21:52:28.226Z,10.93
2023-03-01T21:57:27.723Z,11.25
2023-03-01T21:59:55.346Z,10.90
2023-03-01T22:02:22.394Z,13.43
2023-03-01T22:04:57.194Z,11.05
2023-03-01T22:07:24.299Z,11.55
2023-03-01T22:12:33.071Z,11.75
2023-03-01T22:15:00.099Z,10.98
2023-03-01T22:17:27.165Z,11.05
2023-03-01T22:19:54.252Z,11.48
2023-03-01T22:22:21.352Z,12.15
2023-03-01T22:30:30.218Z,11.63
2023-03-01T22:32:57.298Z,11.52
2023-03-01T22:35:24.363Z,11.13
2023-03-01T22:37:51.389Z,11.13
2023-03-01T22:40:18.416Z,11.75
2023-03-01T22:45:32.460Z,11.13
2023-03-01T22:48:00.106Z,12.48
2023-03-01T22:50:27.731Z,12.70
2023-03-01T22:52:54.853Z,11.75
2023-03-01T22:55:21.980Z,11.05
2023-03-01T23:00:20.448Z,12.52
2023-03-01T23:02:47.679Z,12.60
2023-03-01T23:05:14.763Z,10.65
2023-03-01T23:07:41.769Z,11.60
2023-03-01T23:10:09.153Z,11.68
2023-03-01T23:18:05.918Z,11.27
2023-03-01T23:20:35.953Z,13.48
2023-03-01T23:23:03.164Z,12.95
2023-03-01T23:25:30.445Z,12.25
2023-03-01T23:27:58.355Z,12.02
2023-03-01T23:30:25.684Z,12.50
2023-03-01T23:32:53.835Z,15.45
2023-03-01T23:35:21.309Z,11.63
2023-03-01T23:37:48.928Z,11.57
2023-03-01T23:40:16.934Z,12.45
2023-03-01T23:42:44.894Z,10.85
2023-03-01T23:45:11.974Z,11.82
2023-03-01T23:47:40.016Z,12.07
2023-03-01T23:50:08.901Z,11.45
2023-03-01T23:52:38.916Z,11.90
2023-03-01T23:55:08.304Z,12.10
2023-03-01T23:57:38.687Z,11.35
